createdAt,value
2022-11-03T00:01:37.954Z,963.96
2022-11-03T00:07:11.577Z,963.90
2022-11-03T00:12:43.405Z,963.86
2022-11-03T00:23:47.196Z,963.69
2022-11-03T00:29:18.922Z,963.59
2022-11-03T00:34:50.766Z,963.57
2022-11-03T00:40:22.738Z,963.51
2022-11-03T00:45:54.696Z,963.47
2022-11-03T00:53:39.015Z,963.31
2022-11-03T00:59:10.920Z,963.31
2022-11-03T01:04:42.831Z,963.31
2022-11-03T01:10:14.527Z,963.27
2022-11-03T01:15:46.492Z,963.25
2022-11-03T01:21:18.114Z,963.20
2022-11-03T01:32:21.573Z,963.16
2022-11-03T01:37:53.356Z,963.14
2022-11-03T01:43:25.485Z,963.10
2022-11-03T01:48:57.249Z,963.08
2022-11-03T01:54:28.829Z,963.02
2022-11-03T02:05:32.422Z,962.92
2022-11-03T02:11:04.265Z,962.84
2022-11-03T02:16:36.075Z,962.80
2022-11-03T02:24:29.583Z,962.59
2022-11-03T02:30:01.432Z,962.59
2022-11-03T02:35:33.342Z,962.51
2022-11-03T02:41:05.104Z,962.47
2022-11-03T02:46:36.859Z,962.41
2022-11-03T02:52:08.610Z,962.29
2022-11-03T03:03:12.198Z,962.12
2022-11-03T03:08:44.041Z,962.04
2022-11-03T03:14:15.894Z,961.94
2022-11-03T03:19:47.702Z,961.90
2022-11-03T03:25:19.164Z,961.86
2022-11-03T03:30:50.652Z,961.78
2022-11-03T03:36:22.762Z,961.76
2022-11-03T03:41:54.399Z,961.78
2022-11-03T03:47:26.147Z,961.80
2022-11-03T03:52:57.952Z,961.80
2022-11-03T03:58:30.170Z,961.78
2022-11-03T04:04:01.841Z,961.71
2022-11-03T04:09:33.616Z,961.61
2022-11-03T04:15:05.321Z,961.57
2022-11-03T04:20:37.037Z,961.57
2022-11-03T04:31:38.560Z,961.45
2022-11-03T04:37:10.314Z,961.41
2022-11-03T04:42:42.600Z,961.35
2022-11-03T04:48:14.213Z,961.29
2022-11-03T04:53:46.389Z,961.23
2022-11-03T04:59:18.342Z,961.21
2022-11-03T05:04:50.075Z,961.14
2022-11-03T05:10:21.830Z,960.98
2022-11-03T05:15:53.732Z,960.90
2022-11-03T05:21:25.627Z,960.84
2022-11-03T05:26:57.379Z,960.76
2022-11-03T05:32:29.340Z,960.68
2022-11-03T05:38:01.021Z,960.65
2022-11-03T05:43:32.770Z,960.61
2022-11-03T05:49:04.846Z,960.55
2022-11-03T05:54:36.535Z,960.51
2022-11-03T06:00:14.477Z,960.45
2022-11-03T06:05:46.594Z,960.39
2022-11-03T06:11:18.273Z,960.33
2022-11-03T06:16:49.963Z,960.35
2022-11-03T06:22:21.890Z,960.35
2022-11-03T06:27:53.637Z,960.33
2022-11-03T06:33:25.397Z,960.31
2022-11-03T06:38:57.273Z,960.29
2022-11-03T06:44:28.947Z,960.25
2022-11-03T06:50:00.728Z,960.21
2022-11-03T06:55:32.797Z,960.21
2022-11-03T07:01:05.154Z,960.21
2022-11-03T07:06:37.183Z,960.20
2022-11-03T07:12:09.045Z,960.21
2022-11-03T07:17:40.573Z,960.14
2022-11-03T07:23:12.482Z,960.08
2022-11-03T07:28:44.312Z,960.06
2022-11-03T07:34:16.235Z,960.06
2022-11-03T07:39:48.469Z,960.00
2022-11-03T07:45:20.500Z,960.00
2022-11-03T07:50:52.744Z,960.00
2022-11-03T07:56:24.631Z,959.90
2022-11-03T08:01:56.602Z,959.82
2022-11-03T08:07:28.365Z,959.67
2022-11-03T08:13:00.230Z,959.61
2022-11-03T08:18:31.872Z,959.55
2022-11-03T08:24:03.908Z,959.43
2022-11-03T08:29:35.661Z,959.31
2022-11-03T08:35:07.438Z,959.21
2022-11-03T08:40:39.368Z,959.18
2022-11-03T08:46:17.072Z,959.12
2022-11-03T08:51:44.595Z,959.02
2022-11-03T08:57:14.726Z,958.96
2022-11-03T09:02:46.992Z,958.84
2022-11-03T09:13:51.022Z,958.65
2022-11-03T09:19:23.256Z,958.55
2022-11-03T09:24:54.909Z,958.43
2022-11-03T09:30:26.943Z,958.37
2022-11-03T09:35:58.386Z,958.33
2022-11-03T09:41:53.759Z,958.27
2022-11-03T09:47:02.705Z,958.27
2022-11-03T09:52:34.557Z,958.19
2022-11-03T09:58:06.617Z,958.16
2022-11-03T10:03:39.155Z,958.08
2022-11-03T10:09:11.097Z,958.00
2022-11-03T10:14:42.925Z,957.90
2022-11-03T10:20:14.723Z,957.82
2022-11-03T10:25:46.128Z,957.74
2022-11-03T10:31:18.164Z,957.67
2022-11-03T10:36:50.754Z,957.61
2022-11-03T10:42:22.678Z,957.55
2022-11-03T10:47:59.585Z,957.51
2022-11-03T11:04:31.546Z,957.33
2022-11-03T11:10:03.496Z,957.27
2022-11-03T11:15:35.463Z,957.25
2022-11-03T11:21:07.354Z,957.21
2022-11-03T11:26:39.714Z,957.21
2022-11-03T11:32:12.057Z,957.16
2022-11-03T11:37:44.254Z,957.14
2022-11-03T11:43:16.368Z,957.06
2022-11-03T11:59:52.721Z,956.82
2022-11-03T12:05:25.163Z,956.78
2022-11-03T12:10:57.390Z,956.76
2022-11-03T12:16:29.558Z,956.70
2022-11-03T12:22:01.668Z,956.67
2022-11-03T12:27:33.518Z,956.57
2022-11-03T12:33:05.467Z,956.43
2022-11-03T12:38:37.292Z,956.29
2022-11-03T12:44:09.499Z,956.23
2022-11-03T12:49:42.143Z,956.16
2022-11-03T12:55:13.916Z,956.14
2022-11-03T13:00:49.973Z,956.02
2022-11-03T13:06:17.800Z,955.92
2022-11-03T13:11:49.928Z,955.86
2022-11-03T13:22:51.497Z,955.68
2022-11-03T13:28:23.433Z,955.55
2022-11-03T13:41:46.052Z,955.15
2022-11-03T13:47:18.193Z,955.14
2022-11-03T13:52:50.259Z,955.10
2022-11-03T14:09:25.477Z,954.94
2022-11-03T14:14:57.154Z,954.84
2022-11-03T14:26:13.300Z,954.82
2022-11-03T14:31:32.173Z,954.80
2022-11-03T14:37:04.060Z,954.74
2022-11-03T14:42:35.826Z,954.61
2022-11-03T14:48:07.850Z,954.53
2022-11-03T14:53:39.508Z,954.53
2022-11-03T14:59:11.290Z,954.47
2022-11-03T15:04:42.930Z,954.45
2022-11-03T15:10:14.533Z,954.35
2022-11-03T15:15:46.742Z,954.25
2022-11-03T15:21:18.385Z,954.14
2022-11-03T15:29:10.375Z,953.76
2022-11-03T15:34:41.955Z,953.72
2022-11-03T15:40:13.953Z,953.62
2022-11-03T15:48:06.320Z,953.35
2022-11-03T15:53:38.337Z,953.31
2022-11-03T15:59:10.136Z,953.19
2022-11-03T16:04:41.886Z,953.10
2022-11-03T16:10:13.571Z,952.96
2022-11-03T16:15:45.430Z,952.92
2022-11-03T16:21:17.082Z,952.90
2022-11-03T16:26:49.107Z,952.84
2022-11-03T16:32:20.979Z,952.74
2022-11-03T16:37:54.484Z,952.68
2022-11-03T16:43:26.538Z,952.57
2022-11-03T16:54:28.073Z,952.33
2022-11-03T17:00:00.077Z,952.23
2022-11-03T17:05:31.770Z,952.19
2022-11-03T17:11:03.350Z,952.10
2022-11-03T17:16:34.816Z,951.98
2022-11-03T17:22:06.703Z,951.86
2022-11-03T17:27:38.692Z,951.68
2022-11-03T17:33:10.349Z,951.55
2022-11-03T17:38:42.350Z,951.43
2022-11-03T17:44:13.980Z,951.25
2022-11-03T17:49:45.663Z,951.13
2022-11-03T17:55:17.629Z,951.00
2022-11-03T18:00:49.178Z,950.88
2022-11-03T18:06:20.947Z,950.74
2022-11-03T18:11:52.716Z,950.61
2022-11-03T18:17:24.304Z,950.53
2022-11-03T18:22:56.181Z,950.45
2022-11-03T18:28:28.016Z,950.33
2022-11-03T18:33:59.661Z,950.23
2022-11-03T18:39:31.466Z,950.23
2022-11-03T18:45:03.308Z,950.31
2022-11-03T18:50:34.922Z,950.37
2022-11-03T18:56:08.243Z,950.25
2022-11-03T19:01:40.590Z,950.08
2022-11-03T19:07:14.051Z,949.96
2022-11-03T19:12:46.045Z,949.84
2022-11-03T19:18:17.573Z,949.70
2022-11-03T19:23:51.808Z,949.61
2022-11-03T19:29:23.753Z,949.55
2022-11-03T19:34:55.541Z,949.41
2022-11-03T19:45:59.169Z,949.23
2022-11-03T19:51:31.291Z,949.14
2022-11-03T19:57:03.439Z,949.02
2022-11-03T20:02:35.967Z,948.90
2022-11-03T20:08:08.352Z,948.76
2022-11-03T20:13:40.061Z,948.70
2022-11-03T20:19:11.793Z,948.62
2022-11-03T20:24:43.836Z,948.55
2022-11-03T20:30:15.484Z,948.43
2022-11-03T20:35:47.490Z,948.27
2022-11-03T20:41:19.561Z,948.15
2022-11-03T20:46:51.316Z,948.02
2022-11-03T20:52:23.250Z,947.80
2022-11-03T20:57:55.069Z,947.61
2022-11-03T21:14:30.596Z,947.33
2022-11-03T21:20:04.127Z,947.29
2022-11-03T21:25:36.097Z,947.29
2022-11-03T21:31:08.429Z,947.31
2022-11-03T21:36:40.497Z,947.23
2022-11-03T21:42:12.915Z,947.15
2022-11-03T21:47:45.153Z,947.10
2022-11-03T21:53:17.469Z,947.15
2022-11-03T21:58:49.698Z,947.17
2022-11-03T22:04:21.945Z,947.19
2022-11-03T22:09:54.129Z,947.15
2022-11-03T22:15:25.837Z,947.15
2022-11-03T22:20:57.508Z,947.17
2022-11-03T22:26:29.237Z,947.25
2022-11-03T22:32:01.191Z,947.33
2022-11-03T22:39:53.972Z,947.59
2022-11-03T22:45:25.573Z,947.55
2022-11-03T22:50:57.335Z,947.51
2022-11-03T22:56:29.344Z,947.63
2022-11-03T23:02:01.613Z,947.84
2022-11-03T23:07:37.051Z,947.98
2022-11-03T23:13:04.631Z,948.17
2022-11-03T23:18:36.602Z,948.37
2022-11-03T23:24:08.343Z,948.57
2022-11-03T23:29:40.161Z,948.64
2022-11-03T23:35:12.139Z,948.74
2022-11-03T23:40:43.479Z,948.90
2022-11-03T23:46:15.233Z,949.00
2022-11-03T23:51:46.777Z,949.12
2022-11-03T23:57:18.554Z,949.23
